createdAt,value
2022-12-08T00:02:08.720Z,94.20
2022-12-08T00:04:39.787Z,94.26
2022-12-08T00:07:28.375Z,94.20
2022-12-08T00:09:57.646Z,94.21
2022-12-08T00:12:26.969Z,94.16
2022-12-08T00:14:56.186Z,94.04
2022-12-08T00:17:25.445Z,94.00
2022-12-08T00:19:54.626Z,93.88
2022-12-08T00:22:23.877Z,93.52
2022-12-08T00:24:53.074Z,93.69
2022-12-08T00:27:22.421Z,94.08
2022-12-08T00:29:51.650Z,94.21
2022-12-08T00:32:21.072Z,94.21
2022-12-08T00:34:50.428Z,94.12
2022-12-08T00:37:19.683Z,94.03
2022-12-08T00:39:48.921Z,93.97
2022-12-08T00:42:18.137Z,93.86
2022-12-08T00:44:48.724Z,93.67
2022-12-08T00:47:22.221Z,93.92
2022-12-08T00:49:48.936Z,93.73
2022-12-08T00:52:18.123Z,93.48
2022-12-08T00:54:47.372Z,94.23
2022-12-08T00:57:16.571Z,93.85
2022-12-08T00:59:45.808Z,93.69
2022-12-08T01:02:15.036Z,93.51
2022-12-08T01:04:44.391Z,93.54
2022-12-08T01:07:13.617Z,93.58
2022-12-08T01:09:42.889Z,93.90
2022-12-08T01:12:12.095Z,94.07
2022-12-08T01:14:41.383Z,93.97
2022-12-08T01:17:10.777Z,93.88
2022-12-08T01:19:40.203Z,93.88
2022-12-08T01:22:09.415Z,93.85
2022-12-08T01:24:38.623Z,93.96
2022-12-08T01:27:08.105Z,94.18
2022-12-08T01:29:37.389Z,94.09
2022-12-08T01:32:06.682Z,94.11
2022-12-08T01:34:36.168Z,93.97
2022-12-08T01:37:05.490Z,93.69
2022-12-08T01:39:35.677Z,93.44
2022-12-08T01:42:05.167Z,93.31
2022-12-08T01:44:40.704Z,93.61
2022-12-08T01:47:10.476Z,93.42
2022-12-08T01:49:39.684Z,93.07
2022-12-08T01:52:38.041Z,93.01
2022-12-08T01:55:13.668Z,92.91
2022-12-08T01:57:45.220Z,92.79
2022-12-08T02:00:17.253Z,93.09
2022-12-08T02:03:01.413Z,93.37
2022-12-08T02:05:33.456Z,93.45
2022-12-08T02:08:06.849Z,93.25
2022-12-08T02:10:39.139Z,93.14
2022-12-08T02:13:10.743Z,93.08
2022-12-08T02:16:16.888Z,93.13
2022-12-08T02:19:30.769Z,92.66
2022-12-08T02:22:11.621Z,92.23
2022-12-08T02:24:46.855Z,92.62
2022-12-08T02:27:35.666Z,92.70
2022-12-08T02:30:08.164Z,92.89
2022-12-08T02:32:47.540Z,92.83
2022-12-08T02:35:36.114Z,92.94
2022-12-08T02:38:08.495Z,93.33
2022-12-08T02:40:52.346Z,93.60
2022-12-08T02:43:27.495Z,93.79
2022-12-08T02:46:00.292Z,93.92
2022-12-08T02:48:30.323Z,94.15
2022-12-08T02:50:59.543Z,93.71
2022-12-08T02:53:33.260Z,93.68
2022-12-08T02:56:05.805Z,93.46
2022-12-08T02:58:39.253Z,93.49
2022-12-08T03:01:27.008Z,93.48
2022-12-08T03:04:05.077Z,93.74
2022-12-08T03:06:52.187Z,93.23
2022-12-08T03:09:27.385Z,92.95
2022-12-08T03:12:02.654Z,92.89
2022-12-08T03:14:33.227Z,93.09
2022-12-08T03:17:02.614Z,93.16
2022-12-08T03:19:36.711Z,93.46
2022-12-08T03:22:07.703Z,93.62
2022-12-08T03:24:39.604Z,93.61
2022-12-08T03:27:18.840Z,93.19
2022-12-08T03:29:54.403Z,93.27
2022-12-08T03:32:51.026Z,92.86
2022-12-08T03:35:23.391Z,92.83
2022-12-08T03:37:52.692Z,92.96
2022-12-08T03:40:22.267Z,93.27
2022-12-08T03:42:51.520Z,93.62
2022-12-08T03:45:21.587Z,93.42
2022-12-08T03:47:50.893Z,93.59
2022-12-08T03:50:20.110Z,93.95
2022-12-08T03:52:49.676Z,93.93
2022-12-08T03:55:18.986Z,94.14
2022-12-08T03:57:48.254Z,94.28
2022-12-08T04:00:18.172Z,94.55
2022-12-08T04:02:47.447Z,94.51
2022-12-08T04:05:16.743Z,94.44
2022-12-08T04:07:46.067Z,94.25
2022-12-08T04:10:15.466Z,93.99
2022-12-08T04:12:44.722Z,93.79
2022-12-08T04:15:14.000Z,93.38
2022-12-08T04:17:43.520Z,93.53
2022-12-08T04:20:13.239Z,93.47
2022-12-08T04:22:42.506Z,93.49
2022-12-08T04:25:11.888Z,93.13
2022-12-08T04:27:41.146Z,93.15
2022-12-08T04:30:11.018Z,92.87
2022-12-08T04:32:45.778Z,92.50
2022-12-08T04:35:11.345Z,92.64
2022-12-08T04:37:40.570Z,92.45
2022-12-08T04:40:10.622Z,91.81
2022-12-08T04:42:40.222Z,89.57
2022-12-08T04:45:10.144Z,90.61
2022-12-08T04:47:40.560Z,90.27
2022-12-08T04:50:10.766Z,90.32
2022-12-08T04:52:40.489Z,90.93
2022-12-08T04:55:10.112Z,90.41
2022-12-08T04:57:39.373Z,91.23
2022-12-08T05:00:09.092Z,91.90
2022-12-08T05:02:38.342Z,92.45
2022-12-08T05:05:08.447Z,92.98
2022-12-08T05:07:37.799Z,92.86
2022-12-08T05:10:08.284Z,93.29
2022-12-08T05:12:37.521Z,93.23
2022-12-08T05:15:07.767Z,93.03
2022-12-08T05:17:37.014Z,93.90
2022-12-08T05:20:08.760Z,94.08
2022-12-08T05:22:38.067Z,93.99
2022-12-08T05:25:08.063Z,93.92
2022-12-08T05:27:39.060Z,93.85
2022-12-08T05:30:08.864Z,94.01
2022-12-08T05:32:38.089Z,93.43
2022-12-08T05:35:08.349Z,93.31
2022-12-08T05:37:37.553Z,92.87
2022-12-08T05:40:08.045Z,92.57
2022-12-08T05:42:37.458Z,93.05
2022-12-08T05:45:07.390Z,93.13
2022-12-08T05:47:36.620Z,93.21
2022-12-08T05:50:07.371Z,93.21
2022-12-08T05:52:36.988Z,93.87
2022-12-08T05:55:06.908Z,93.69
2022-12-08T05:57:36.514Z,92.89
2022-12-08T06:00:07.610Z,93.20
2022-12-08T06:02:38.758Z,93.11
2022-12-08T06:05:08.914Z,93.05
2022-12-08T06:07:38.202Z,93.60
2022-12-08T06:10:08.695Z,94.01
2022-12-08T06:12:37.986Z,94.13
2022-12-08T06:15:07.917Z,94.12
2022-12-08T06:17:37.204Z,94.04
2022-12-08T06:20:08.067Z,93.65
2022-12-08T06:22:37.800Z,93.80
2022-12-08T06:25:10.291Z,93.30
2022-12-08T06:27:39.998Z,92.97
2022-12-08T06:30:09.876Z,93.05
2022-12-08T06:32:39.115Z,93.36
2022-12-08T06:35:09.014Z,93.79
2022-12-08T06:37:38.434Z,93.78
2022-12-08T06:40:08.948Z,93.29
2022-12-08T06:42:43.937Z,93.46
2022-12-08T06:45:15.871Z,93.66
2022-12-08T06:47:45.147Z,93.48
2022-12-08T06:50:15.136Z,93.35
2022-12-08T06:52:56.900Z,92.96
2022-12-08T06:55:42.713Z,92.58
2022-12-08T06:57:51.164Z,93.35
2022-12-08T07:00:20.050Z,91.78
2022-12-08T07:02:49.754Z,91.53
2022-12-08T07:05:19.164Z,91.15
2022-12-08T07:07:48.500Z,90.58
2022-12-08T07:10:17.892Z,90.57
2022-12-08T07:12:47.164Z,91.04
2022-12-08T07:15:16.510Z,91.07
2022-12-08T07:17:45.773Z,91.36
2022-12-08T07:20:15.321Z,92.53
2022-12-08T07:22:49.993Z,92.41
2022-12-08T07:25:20.223Z,93.28
2022-12-08T07:27:51.636Z,93.37
2022-12-08T07:30:21.074Z,93.09
2022-12-08T07:32:50.319Z,93.13
2022-12-08T07:35:19.605Z,93.44
2022-12-08T07:37:48.995Z,91.28
2022-12-08T07:40:18.288Z,92.06
2022-12-08T07:42:47.533Z,91.60
2022-12-08T07:45:16.882Z,89.39
2022-12-08T07:47:46.157Z,91.18
2022-12-08T07:50:15.434Z,90.62
2022-12-08T07:52:44.700Z,90.50
2022-12-08T07:55:13.922Z,91.67
2022-12-08T07:57:43.345Z,92.43
2022-12-08T08:00:13.359Z,92.87
2022-12-08T08:02:43.214Z,93.31
2022-12-08T08:05:13.102Z,93.67
2022-12-08T08:07:43.800Z,93.44
2022-12-08T08:10:13.202Z,92.39
2022-12-08T08:12:42.432Z,91.79
2022-12-08T08:15:11.732Z,91.86
2022-12-08T08:17:41.102Z,91.66
2022-12-08T08:20:11.322Z,92.16
2022-12-08T08:22:40.547Z,91.52
2022-12-08T08:25:10.290Z,92.10
2022-12-08T08:27:39.583Z,92.23
2022-12-08T08:30:15.232Z,91.96
2022-12-08T08:32:42.203Z,92.17
2022-12-08T08:35:11.597Z,91.83
2022-12-08T08:37:44.337Z,91.85
2022-12-08T08:40:12.153Z,92.11
2022-12-08T08:42:41.494Z,92.18
2022-12-08T08:45:11.372Z,91.78
2022-12-08T08:47:40.605Z,92.24
2022-12-08T08:50:10.105Z,92.30
2022-12-08T08:52:39.424Z,92.62
2022-12-08T08:55:08.997Z,92.75
2022-12-08T08:57:38.317Z,93.02
2022-12-08T09:00:10.180Z,93.34
2022-12-08T09:02:39.988Z,92.11
2022-12-08T09:05:09.985Z,91.85
2022-12-08T09:07:39.358Z,92.13
2022-12-08T09:10:09.716Z,92.75
2022-12-08T09:12:38.956Z,92.72
2022-12-08T09:15:08.746Z,93.03
2022-12-08T09:17:38.572Z,93.27
2022-12-08T09:20:08.779Z,92.96
2022-12-08T09:22:37.995Z,92.92
2022-12-08T09:25:07.798Z,92.95
2022-12-08T09:27:37.010Z,92.80
2022-12-08T09:30:07.666Z,92.89
2022-12-08T09:32:37.115Z,93.37
2022-12-08T09:35:06.593Z,93.09
2022-12-08T09:37:35.807Z,92.71
2022-12-08T09:40:07.415Z,92.50
2022-12-08T09:42:40.125Z,92.71
2022-12-08T09:45:14.106Z,92.89
2022-12-08T09:47:55.196Z,92.99
2022-12-08T09:50:30.510Z,93.13
2022-12-08T09:53:03.672Z,91.83
2022-12-08T09:55:53.963Z,92.26
2022-12-08T09:58:59.735Z,92.43
2022-12-08T10:01:34.036Z,92.42
2022-12-08T10:04:04.301Z,91.98
2022-12-08T10:06:39.864Z,91.58
2022-12-08T10:09:31.782Z,92.26
2022-12-08T10:12:19.155Z,92.27
2022-12-08T10:14:51.809Z,92.29
2022-12-08T10:17:26.881Z,92.70
2022-12-08T10:20:01.691Z,92.89
2022-12-08T10:22:39.838Z,93.20
2022-12-08T10:25:24.578Z,93.84
2022-12-08T10:27:55.394Z,93.07
2022-12-08T10:30:24.677Z,93.67
2022-12-08T10:32:55.421Z,93.91
2022-12-08T10:35:25.619Z,93.32
2022-12-08T10:38:05.280Z,93.13
2022-12-08T10:40:45.306Z,93.05
2022-12-08T10:43:12.744Z,93.13
2022-12-08T10:45:43.300Z,92.94
2022-12-08T10:48:20.513Z,93.12
2022-12-08T10:50:52.899Z,93.73
2022-12-08T10:53:25.103Z,93.61
2022-12-08T10:56:06.692Z,93.79
2022-12-08T10:58:43.260Z,93.42
2022-12-08T11:01:24.601Z,93.42
2022-12-08T11:03:56.710Z,93.34
2022-12-08T11:06:33.907Z,93.27
2022-12-08T11:09:06.049Z,93.13
2022-12-08T11:11:56.752Z,93.20
2022-12-08T11:14:29.307Z,93.48
2022-12-08T11:17:08.119Z,93.81
2022-12-08T11:19:43.627Z,93.99
2022-12-08T11:22:33.455Z,94.17
2022-12-08T11:25:11.586Z,94.01
2022-12-08T11:27:46.752Z,94.02
2022-12-08T11:30:19.241Z,93.60
2022-12-08T11:32:51.189Z,93.72
2022-12-08T11:35:28.330Z,93.93
2022-12-08T11:38:19.760Z,94.04
2022-12-08T11:40:34.869Z,94.43
2022-12-08T11:43:19.184Z,94.01
2022-12-08T11:45:51.356Z,93.96
2022-12-08T11:48:23.842Z,93.38
2022-12-08T11:50:56.195Z,93.74
2022-12-08T11:53:49.501Z,93.17
2022-12-08T11:56:21.495Z,92.72
2022-12-08T11:59:02.518Z,92.57
2022-12-08T12:01:31.768Z,92.88
2022-12-08T12:04:04.171Z,92.58
2022-12-08T12:06:54.410Z,92.77
2022-12-08T12:09:28.703Z,92.76
2022-12-08T12:12:19.315Z,92.66
2022-12-08T12:14:54.542Z,92.44
2022-12-08T12:17:38.923Z,92.36
2022-12-08T12:20:25.973Z,92.84
2022-12-08T12:23:19.411Z,92.37
2022-12-08T12:26:00.123Z,91.95
2022-12-08T12:28:32.243Z,92.65
2022-12-08T12:31:13.132Z,92.06
2022-12-08T12:33:44.450Z,91.72
2022-12-08T12:36:14.938Z,91.78
2022-12-08T12:39:08.805Z,91.02
2022-12-08T12:41:55.647Z,91.49
2022-12-08T12:44:28.395Z,91.00
2022-12-08T12:47:02.278Z,91.22
2022-12-08T12:49:46.196Z,92.01
2022-12-08T12:55:15.500Z,90.41
2022-12-08T12:57:56.926Z,90.46
2022-12-08T13:00:28.281Z,89.67
2022-12-08T13:02:59.386Z,90.38
2022-12-08T13:05:34.028Z,89.85
2022-12-08T13:08:08.368Z,89.80
2022-12-08T13:10:41.259Z,89.98
2022-12-08T13:13:19.309Z,90.23
2022-12-08T13:15:54.109Z,89.45
2022-12-08T13:18:50.435Z,89.47
2022-12-08T13:21:23.971Z,90.58
2022-12-08T13:24:14.312Z,90.44
2022-12-08T13:26:47.961Z,90.40
2022-12-08T13:29:26.880Z,91.61
2022-12-08T13:32:03.634Z,92.35
2022-12-08T13:34:54.379Z,92.63
2022-12-08T13:37:39.733Z,92.46
2022-12-08T13:40:13.192Z,92.10
2022-12-08T13:42:46.995Z,92.33
2022-12-08T13:46:10.815Z,92.53
2022-12-08T13:48:56.242Z,91.77
2022-12-08T13:54:45.506Z,91.74
2022-12-08T13:58:46.314Z,91.90
2022-12-08T14:01:23.515Z,91.77
2022-12-08T14:06:33.999Z,90.87
2022-12-08T14:09:10.742Z,91.55
2022-12-08T14:11:39.518Z,91.67
2022-12-08T14:14:32.607Z,91.23
2022-12-08T14:16:54.212Z,91.33
2022-12-08T14:19:28.590Z,92.01
2022-12-08T14:22:01.797Z,91.72
2022-12-08T14:24:36.160Z,91.96
2022-12-08T14:27:06.146Z,92.26
2022-12-08T14:29:52.555Z,92.29
2022-12-08T14:32:28.160Z,92.19
2022-12-08T14:35:09.395Z,91.98
2022-12-08T14:37:47.180Z,91.96
2022-12-08T14:40:39.818Z,92.53
2022-12-08T14:43:15.114Z,92.46
2022-12-08T14:45:47.825Z,92.53
2022-12-08T14:48:34.996Z,92.02
2022-12-08T14:51:23.404Z,92.20
2022-12-08T14:54:05.012Z,91.56
2022-12-08T14:56:46.448Z,91.60
2022-12-08T14:59:21.387Z,90.89
2022-12-08T15:01:53.274Z,91.19
2022-12-08T15:04:30.195Z,91.34
2022-12-08T15:07:01.870Z,91.76
2022-12-08T15:09:37.366Z,91.50
2022-12-08T15:12:09.606Z,91.82
2022-12-08T15:14:57.006Z,91.57
2022-12-08T15:17:43.627Z,91.68
2022-12-08T15:20:45.563Z,91.81
2022-12-08T15:23:27.501Z,91.92
2022-12-08T15:25:57.412Z,92.41
2022-12-08T15:28:30.247Z,91.95
2022-12-08T15:31:00.412Z,92.19
2022-12-08T15:33:29.918Z,92.42
2022-12-08T15:35:59.250Z,92.96
2022-12-08T15:38:29.663Z,93.27
2022-12-08T15:40:59.606Z,93.39
2022-12-08T15:43:28.882Z,93.16
2022-12-08T15:45:59.821Z,93.39
2022-12-08T15:48:30.761Z,93.50
2022-12-08T15:51:00.268Z,93.45
2022-12-08T15:53:30.073Z,93.81
2022-12-08T15:58:53.070Z,93.91
2022-12-08T16:01:02.019Z,93.99
2022-12-08T16:06:50.832Z,94.02
2022-12-08T16:08:49.538Z,94.06
2022-12-08T16:11:56.834Z,94.21
2022-12-08T16:14:03.468Z,94.08
2022-12-08T16:16:30.708Z,93.78
2022-12-08T16:19:00.028Z,93.86
2022-12-08T16:22:04.858Z,94.24
2022-12-08T16:24:06.072Z,93.99
2022-12-08T16:27:50.752Z,93.84
2022-12-08T16:29:05.136Z,93.95
2022-12-08T16:31:34.519Z,93.67
2022-12-08T16:34:03.891Z,93.75
2022-12-08T16:36:33.115Z,93.87
2022-12-08T16:39:02.427Z,94.09
2022-12-08T16:41:49.670Z,94.15
2022-12-08T16:44:19.053Z,94.16
2022-12-08T16:46:48.519Z,94.47
2022-12-08T16:49:17.737Z,94.21
2022-12-08T16:51:47.221Z,94.14
2022-12-08T16:54:16.801Z,94.06
2022-12-08T16:56:46.200Z,94.01
2022-12-08T16:59:15.794Z,93.93
2022-12-08T17:01:45.258Z,94.13
2022-12-08T17:04:31.757Z,94.45
2022-12-08T17:06:46.036Z,94.64
2022-12-08T17:09:15.292Z,95.05
2022-12-08T17:11:45.252Z,95.36
2022-12-08T17:14:15.222Z,95.46
2022-12-08T17:16:45.815Z,95.42
2022-12-08T17:19:15.572Z,95.26
2022-12-08T17:21:45.926Z,95.21
2022-12-08T17:24:20.185Z,95.32
2022-12-08T17:26:46.078Z,95.31
2022-12-08T17:29:15.318Z,95.31
2022-12-08T17:31:44.962Z,95.25
2022-12-08T17:34:14.812Z,95.50
2022-12-08T17:36:44.202Z,95.63
2022-12-08T17:39:18.607Z,95.64
2022-12-08T17:41:46.267Z,95.73
2022-12-08T17:44:18.322Z,95.87
2022-12-08T17:46:52.647Z,95.91
2022-12-08T17:49:25.358Z,96.09
2022-12-08T17:51:57.771Z,96.11
2022-12-08T17:54:26.722Z,96.28
2022-12-08T17:56:58.206Z,96.29
2022-12-08T17:59:29.461Z,96.30
2022-12-08T18:02:00.087Z,96.25
2022-12-08T18:04:30.477Z,96.25
2022-12-08T18:07:01.350Z,96.34
2022-12-08T18:09:32.970Z,96.30
2022-12-08T18:12:02.280Z,96.25
2022-12-08T18:14:31.688Z,96.26
2022-12-08T18:17:01.029Z,96.28
2022-12-08T18:19:30.340Z,96.33
2022-12-08T18:21:59.893Z,96.47
2022-12-08T18:24:29.201Z,96.52
2022-12-08T18:26:58.599Z,96.56
2022-12-08T18:29:28.265Z,96.68
2022-12-08T18:31:57.526Z,96.71
2022-12-08T18:34:26.747Z,96.79
2022-12-08T18:36:56.070Z,96.75
2022-12-08T18:39:28.333Z,96.83
2022-12-08T18:41:59.048Z,96.76
2022-12-08T18:44:28.376Z,96.71
2022-12-08T18:46:57.785Z,96.64
2022-12-08T18:49:27.319Z,96.62
2022-12-08T18:51:56.562Z,96.71
2022-12-08T18:54:37.174Z,96.75
2022-12-08T18:56:57.424Z,96.77
2022-12-08T18:59:27.152Z,96.83
2022-12-08T19:01:57.683Z,96.82
2022-12-08T19:04:29.063Z,96.74
2022-12-08T19:06:58.925Z,96.72
2022-12-08T19:09:29.309Z,96.71
2022-12-08T19:11:58.583Z,96.63
2022-12-08T19:14:30.573Z,96.50
2022-12-08T19:17:00.034Z,96.46
2022-12-08T19:19:29.776Z,96.48
2022-12-08T19:21:59.007Z,96.33
2022-12-08T19:24:28.932Z,96.25
2022-12-08T19:26:58.160Z,96.25
2022-12-08T19:29:27.541Z,96.13
2022-12-08T19:31:57.440Z,96.04
2022-12-08T19:34:26.834Z,95.90
2022-12-08T19:36:56.039Z,95.92
2022-12-08T19:39:43.184Z,95.90
2022-12-08T19:42:35.479Z,95.90
2022-12-08T19:45:08.103Z,95.95
2022-12-08T19:47:37.697Z,96.05
2022-12-08T19:50:27.059Z,96.11
2022-12-08T19:52:56.786Z,96.18
2022-12-08T19:55:26.620Z,96.10
2022-12-08T19:57:57.031Z,96.12
2022-12-08T20:00:26.370Z,96.15
2022-12-08T20:02:58.506Z,96.15
2022-12-08T20:05:27.825Z,96.17
2022-12-08T20:07:57.343Z,96.10
2022-12-08T20:10:34.338Z,96.08
2022-12-08T20:13:26.792Z,96.14
2022-12-08T20:18:54.264Z,96.17
2022-12-08T20:21:27.271Z,96.13
2022-12-08T20:24:05.090Z,96.20
2022-12-08T20:26:35.402Z,96.32
2022-12-08T20:29:05.136Z,96.30
2022-12-08T20:31:37.468Z,96.29
2022-12-08T20:34:11.329Z,96.39
2022-12-08T20:36:41.492Z,96.45
2022-12-08T20:39:19.336Z,96.54
2022-12-08T20:42:06.657Z,96.58
2022-12-08T20:44:47.575Z,96.62
2022-12-08T20:47:18.289Z,96.57
2022-12-08T20:49:49.412Z,96.64
2022-12-08T20:52:22.741Z,96.53
2022-12-08T20:54:59.444Z,96.46
2022-12-08T20:57:30.336Z,96.41
2022-12-08T21:00:00.814Z,96.43
2022-12-08T21:02:30.310Z,96.44
2022-12-08T21:05:00.107Z,96.47
2022-12-08T21:07:29.567Z,96.54
2022-12-08T21:09:58.833Z,96.61
2022-12-08T21:12:28.373Z,96.53
2022-12-08T21:14:57.715Z,96.48
2022-12-08T21:17:27.353Z,96.33
2022-12-08T21:19:56.956Z,96.27
2022-12-08T21:22:26.756Z,96.31
2022-12-08T21:24:56.047Z,96.26
2022-12-08T21:27:25.806Z,96.32
2022-12-08T21:29:55.251Z,96.38
2022-12-08T21:32:30.088Z,96.35
2022-12-08T21:34:58.038Z,96.30
2022-12-08T21:37:28.029Z,96.33
2022-12-08T21:39:58.184Z,96.40
2022-12-08T21:42:46.250Z,96.47
2022-12-08T21:45:18.476Z,96.45
2022-12-08T21:47:48.855Z,96.50
2022-12-08T21:50:19.260Z,96.46
2022-12-08T21:52:50.336Z,96.53
2022-12-08T21:55:20.363Z,96.59
2022-12-08T21:57:50.171Z,96.66
2022-12-08T22:00:20.665Z,96.77
2022-12-08T22:02:50.663Z,96.69
2022-12-08T22:05:20.593Z,96.62
2022-12-08T22:07:50.057Z,96.48
2022-12-08T22:10:21.214Z,96.42
2022-12-08T22:12:51.079Z,96.31
2022-12-08T22:15:20.514Z,96.09
2022-12-08T22:17:50.370Z,95.98
2022-12-08T22:20:19.792Z,96.02
2022-12-08T22:22:49.591Z,95.93
2022-12-08T22:25:18.826Z,95.85
2022-12-08T22:27:48.649Z,95.86
2022-12-08T22:30:18.021Z,96.30
2022-12-08T22:32:48.035Z,96.42
2022-12-08T22:35:17.475Z,96.34
2022-12-08T22:37:49.798Z,96.34
2022-12-08T22:40:19.525Z,96.42
2022-12-08T22:42:49.155Z,96.50
2022-12-08T22:45:18.399Z,96.62
2022-12-08T22:47:47.806Z,96.50
2022-12-08T22:50:17.301Z,96.44
2022-12-08T22:52:46.593Z,96.55
2022-12-08T22:55:15.820Z,96.58
2022-12-08T22:57:45.298Z,96.62
2022-12-08T23:00:15.242Z,96.50
2022-12-08T23:02:45.598Z,96.45
2022-12-08T23:05:15.277Z,96.50
2022-12-08T23:07:44.989Z,96.52
2022-12-08T23:10:14.593Z,96.49
2022-12-08T23:12:44.101Z,96.56
2022-12-08T23:15:13.433Z,96.53
2022-12-08T23:17:43.041Z,96.54
2022-12-08T23:20:13.427Z,96.62
2022-12-08T23:22:42.817Z,96.61
2022-12-08T23:25:12.572Z,96.53
2022-12-08T23:27:41.936Z,96.64
2022-12-08T23:30:12.679Z,96.68
2022-12-08T23:32:42.537Z,96.77
2022-12-08T23:35:12.266Z,96.58
2022-12-08T23:37:41.959Z,96.39
2022-12-08T23:40:12.805Z,96.45
2022-12-08T23:42:42.496Z,96.25
2022-12-08T23:45:13.003Z,96.46
2022-12-08T23:47:42.391Z,96.44
2022-12-08T23:50:13.234Z,96.51
2022-12-08T23:52:42.602Z,96.49
2022-12-08T23:55:12.688Z,96.18
2022-12-08T23:57:42.019Z,96.36
